createdAt,value
2018-10-09T00:01:29.172Z,74.10
2018-10-09T00:03:56.827Z,74.60
2018-10-09T00:06:24.455Z,74.30
2018-10-09T00:08:52.057Z,73.90
2018-10-09T00:11:19.665Z,73.80
2018-10-09T00:13:47.297Z,73.80
2018-10-09T00:16:15.060Z,73.30
2018-10-09T00:18:42.781Z,74.20
2018-10-09T00:21:10.455Z,73.70
2018-10-09T00:23:38.126Z,73.60
2018-10-09T00:26:06.092Z,73.80
2018-10-09T00:28:33.654Z,74.00
2018-10-09T00:31:01.315Z,73.90
2018-10-09T00:33:28.943Z,73.90
2018-10-09T00:35:56.566Z,73.90
2018-10-09T00:38:24.322Z,74.10
2018-10-09T00:40:52.069Z,74.40
2018-10-09T00:43:19.863Z,74.30
2018-10-09T00:45:47.705Z,74.60
2018-10-09T00:48:15.369Z,74.50
2018-10-09T00:50:43.304Z,74.60
2018-10-09T00:53:10.956Z,74.90
2018-10-09T00:55:38.589Z,75.00
2018-10-09T00:58:06.310Z,74.40
2018-10-09T01:00:33.898Z,74.30
2018-10-09T01:03:01.548Z,74.20
2018-10-09T01:05:29.224Z,74.20
2018-10-09T01:07:56.917Z,74.20
2018-10-09T01:10:24.580Z,74.20
2018-10-09T01:12:52.277Z,74.00
2018-10-09T01:15:19.909Z,74.20
2018-10-09T01:17:47.586Z,74.40
2018-10-09T01:20:19.504Z,74.10
2018-10-09T01:22:47.120Z,75.00
2018-10-09T01:25:14.710Z,75.30
2018-10-09T01:27:42.410Z,75.50
2018-10-09T01:30:10.166Z,75.00
2018-10-09T01:32:38.448Z,74.80
2018-10-09T01:35:06.056Z,74.50
2018-10-09T01:37:33.773Z,74.20
2018-10-09T01:40:01.418Z,74.10
2018-10-09T01:42:29.028Z,74.20
2018-10-09T01:44:56.689Z,74.40
2018-10-09T01:47:24.450Z,74.40
2018-10-09T01:49:52.083Z,74.60
2018-10-09T01:52:19.709Z,74.60
2018-10-09T01:54:47.456Z,74.50
2018-10-09T01:57:15.162Z,74.40
2018-10-09T01:59:42.810Z,74.50
2018-10-09T02:02:10.447Z,74.50
2018-10-09T02:04:38.194Z,74.30
2018-10-09T02:07:06.917Z,74.40
2018-10-09T02:09:35.276Z,75.60
2018-10-09T02:12:03.662Z,75.40
2018-10-09T02:14:32.160Z,74.90
2018-10-09T02:17:00.552Z,74.90
2018-10-09T02:19:28.960Z,75.10
2018-10-09T02:21:57.347Z,76.00
2018-10-09T02:24:25.917Z,76.20
2018-10-09T02:26:54.618Z,75.70
2018-10-09T02:29:22.973Z,75.40
2018-10-09T02:31:51.407Z,75.30
2018-10-09T02:34:19.849Z,75.20
2018-10-09T02:36:48.245Z,75.30
2018-10-09T02:39:16.735Z,75.60
2018-10-09T02:41:45.121Z,75.50
2018-10-09T02:44:13.591Z,75.90
2018-10-09T02:46:41.994Z,76.10
2018-10-09T02:49:10.451Z,76.50
2018-10-09T02:51:38.854Z,76.40
2018-10-09T02:54:07.833Z,76.50
2018-10-09T02:56:36.246Z,76.50
2018-10-09T02:59:04.693Z,76.10
2018-10-09T03:01:33.175Z,76.30
2018-10-09T03:04:01.551Z,76.40
2018-10-09T03:06:30.018Z,76.80
2018-10-09T03:08:58.507Z,76.90
2018-10-09T03:11:26.931Z,77.60
2018-10-09T03:13:55.315Z,77.30
2018-10-09T03:16:23.718Z,77.00
2018-10-09T03:18:52.181Z,76.80
2018-10-09T03:21:20.567Z,76.70
2018-10-09T03:23:49.085Z,76.90
2018-10-09T03:26:17.594Z,76.50
2018-10-09T03:28:46.162Z,76.50
2018-10-09T03:31:14.546Z,76.80
2018-10-09T03:33:43.077Z,76.70
2018-10-09T03:36:11.450Z,76.50
2018-10-09T03:38:39.962Z,77.30
2018-10-09T03:41:09.443Z,77.00
2018-10-09T03:43:37.813Z,77.30
2018-10-09T03:46:06.266Z,77.60
2018-10-09T03:48:35.065Z,77.40
2018-10-09T03:51:03.440Z,76.90
2018-10-09T03:53:31.043Z,77.10
2018-10-09T03:55:59.559Z,77.80
2018-10-09T03:58:28.043Z,77.00
2018-10-09T04:00:56.429Z,77.50
2018-10-09T04:03:24.826Z,77.80
2018-10-09T04:05:53.313Z,77.80
2018-10-09T04:08:21.774Z,77.80
2018-10-09T04:10:50.149Z,77.40
2018-10-09T04:13:18.527Z,76.80
2018-10-09T04:15:46.940Z,76.20
2018-10-09T04:18:15.317Z,75.80
2018-10-09T04:20:43.810Z,75.60
2018-10-09T04:23:12.182Z,76.10
2018-10-09T04:25:40.589Z,76.20
2018-10-09T04:28:09.058Z,75.80
2018-10-09T04:30:37.404Z,75.50
2018-10-09T04:33:05.868Z,75.60
2018-10-09T04:35:34.430Z,75.70
2018-10-09T04:38:02.945Z,75.70
2018-10-09T04:40:31.456Z,75.80
2018-10-09T04:42:59.852Z,75.80
2018-10-09T04:45:29.177Z,75.90
2018-10-09T04:47:59.070Z,75.80
2018-10-09T04:50:27.708Z,76.00
2018-10-09T04:52:56.231Z,75.80
2018-10-09T04:55:24.677Z,75.80
2018-10-09T04:57:53.097Z,75.60
2018-10-09T05:00:21.489Z,75.70
2018-10-09T05:02:49.994Z,75.90
2018-10-09T05:05:18.533Z,76.00
2018-10-09T05:07:46.973Z,76.10
2018-10-09T05:10:15.410Z,76.10
2018-10-09T05:12:43.916Z,76.20
2018-10-09T05:15:12.438Z,76.30
2018-10-09T05:17:40.938Z,76.30
2018-10-09T05:20:10.515Z,76.50
2018-10-09T05:22:39.224Z,76.50
2018-10-09T05:25:07.754Z,76.60
2018-10-09T05:27:36.188Z,76.60
2018-10-09T05:30:04.700Z,76.80
2018-10-09T05:32:33.220Z,76.80
2018-10-09T05:35:01.725Z,77.10
2018-10-09T05:37:30.148Z,77.00
2018-10-09T05:39:58.564Z,77.00
2018-10-09T05:42:27.038Z,77.10
2018-10-09T05:44:55.544Z,77.00
2018-10-09T05:47:24.014Z,76.90
2018-10-09T05:49:52.456Z,77.00
2018-10-09T05:52:20.987Z,77.30
2018-10-09T05:54:49.420Z,77.10
2018-10-09T05:57:17.824Z,77.40
2018-10-09T05:59:46.274Z,77.40
2018-10-09T06:02:14.826Z,77.60
2018-10-09T06:04:43.342Z,77.70
2018-10-09T06:07:11.774Z,77.60
2018-10-09T06:09:40.157Z,77.70
2018-10-09T06:12:08.537Z,77.60
2018-10-09T06:14:37.071Z,77.80
2018-10-09T06:17:05.642Z,77.80
2018-10-09T06:19:34.021Z,77.50
2018-10-09T06:22:02.507Z,77.90
2018-10-09T06:24:31.076Z,77.80
2018-10-09T06:26:59.639Z,78.00
2018-10-09T06:29:28.016Z,78.30
2018-10-09T06:31:56.425Z,78.30
2018-10-09T06:34:24.829Z,78.70
2018-10-09T06:36:53.289Z,78.40
2018-10-09T06:39:21.705Z,78.60
2018-10-09T06:41:50.139Z,78.80
2018-10-09T06:44:18.683Z,78.70
2018-10-09T06:46:47.056Z,78.70
2018-10-09T06:49:15.499Z,78.90
2018-10-09T06:51:43.974Z,78.80
2018-10-09T06:54:12.539Z,78.80
2018-10-09T06:56:40.947Z,78.60
2018-10-09T06:59:09.404Z,78.70
2018-10-09T07:01:37.885Z,78.80
2018-10-09T07:04:06.390Z,78.50
2018-10-09T07:06:34.791Z,78.70
2018-10-09T07:09:03.417Z,78.60
2018-10-09T07:11:31.868Z,78.40
2018-10-09T07:14:00.296Z,78.70
2018-10-09T07:16:28.786Z,78.50
2018-10-09T07:18:57.137Z,78.60
2018-10-09T07:21:25.642Z,78.40
2018-10-09T07:23:54.002Z,78.60
2018-10-09T07:26:22.645Z,78.80
2018-10-09T07:28:51.010Z,78.50
2018-10-09T07:31:19.485Z,78.40
2018-10-09T07:33:47.902Z,78.20
2018-10-09T07:36:16.411Z,78.30
2018-10-09T07:38:44.811Z,78.50
2018-10-09T07:41:13.246Z,78.30
2018-10-09T07:43:41.777Z,78.60
2018-10-09T07:46:10.238Z,78.60
2018-10-09T07:48:38.770Z,78.80
2018-10-09T07:51:07.422Z,78.60
2018-10-09T07:53:35.850Z,78.60
2018-10-09T07:56:04.241Z,78.70
2018-10-09T07:58:32.784Z,78.70
2018-10-09T08:01:01.159Z,78.50
2018-10-09T08:03:29.642Z,78.70
2018-10-09T08:05:58.039Z,78.70
2018-10-09T08:08:26.460Z,78.80
2018-10-09T08:10:54.909Z,78.40
2018-10-09T08:13:23.306Z,78.00
2018-10-09T08:15:51.739Z,77.60
2018-10-09T08:18:20.115Z,77.80
2018-10-09T08:20:48.566Z,78.90
2018-10-09T08:23:17.172Z,78.20
2018-10-09T08:25:45.622Z,78.30
2018-10-09T08:28:13.992Z,78.50
2018-10-09T08:30:42.344Z,78.70
2018-10-09T08:33:10.714Z,78.90
2018-10-09T08:35:39.255Z,78.90
2018-10-09T08:38:07.704Z,78.80
2018-10-09T08:40:36.201Z,78.60
2018-10-09T08:43:04.684Z,78.20
2018-10-09T08:45:33.157Z,78.10
2018-10-09T08:48:01.595Z,78.10
2018-10-09T08:50:29.995Z,77.40
2018-10-09T08:52:58.356Z,77.30
2018-10-09T08:55:26.856Z,77.30
2018-10-09T08:57:55.420Z,77.00
2018-10-09T09:00:23.905Z,76.50
2018-10-09T09:02:52.343Z,76.20
2018-10-09T09:05:21.014Z,76.10
2018-10-09T09:07:49.409Z,75.60
2018-10-09T09:10:17.937Z,75.40
2018-10-09T09:12:46.323Z,75.00
2018-10-09T09:15:14.773Z,74.70
2018-10-09T09:17:43.281Z,74.70
2018-10-09T09:20:11.770Z,74.70
2018-10-09T09:22:40.397Z,74.60
2018-10-09T09:25:08.828Z,74.50
2018-10-09T09:27:37.213Z,74.40
2018-10-09T09:30:06.623Z,74.10
2018-10-09T09:32:35.045Z,73.70
2018-10-09T09:35:03.695Z,73.20
2018-10-09T09:37:32.212Z,73.20
2018-10-09T09:40:00.651Z,73.10
2018-10-09T09:42:29.039Z,72.90
2018-10-09T09:44:57.521Z,72.50
2018-10-09T09:47:26.075Z,71.50
2018-10-09T09:49:54.463Z,71.00
2018-10-09T09:52:23.160Z,71.20
2018-10-09T09:54:51.583Z,70.90
2018-10-09T09:57:20.110Z,70.30
2018-10-09T09:59:48.589Z,69.80
2018-10-09T10:02:17.059Z,69.90
2018-10-09T10:04:45.655Z,69.20
2018-10-09T10:07:14.253Z,67.50
2018-10-09T10:09:42.651Z,66.50
2018-10-09T10:12:11.271Z,65.60
2018-10-09T10:14:39.712Z,64.80
2018-10-09T10:17:08.200Z,63.70
2018-10-09T10:19:36.644Z,63.40
2018-10-09T10:22:05.131Z,63.20
2018-10-09T10:24:33.794Z,63.00
2018-10-09T10:27:02.235Z,62.30
2018-10-09T10:29:30.817Z,62.30
2018-10-09T10:31:59.215Z,62.40
2018-10-09T10:34:27.602Z,61.80
2018-10-09T10:36:56.159Z,61.10
2018-10-09T10:39:24.535Z,60.50
2018-10-09T10:41:52.928Z,59.70
2018-10-09T10:44:21.381Z,59.50
2018-10-09T10:46:50.024Z,59.40
2018-10-09T10:49:18.407Z,58.90
2018-10-09T10:51:46.774Z,58.90
2018-10-09T10:54:15.159Z,58.40
2018-10-09T10:56:43.578Z,58.10
2018-10-09T10:59:12.070Z,58.10
2018-10-09T11:01:40.644Z,58.30
2018-10-09T11:04:09.049Z,57.60
2018-10-09T11:06:37.462Z,58.40
2018-10-09T11:09:09.009Z,57.60
2018-10-09T11:11:37.710Z,57.20
2018-10-09T11:14:06.299Z,57.30
2018-10-09T11:16:34.834Z,57.50
2018-10-09T11:19:03.298Z,57.70
2018-10-09T11:21:31.839Z,57.70
2018-10-09T11:24:00.383Z,58.10
2018-10-09T11:26:28.842Z,59.00
2018-10-09T11:28:57.243Z,58.40
2018-10-09T11:31:25.669Z,58.70
2018-10-09T11:33:54.094Z,59.10
2018-10-09T11:36:22.514Z,58.90
2018-10-09T11:38:50.954Z,58.90
2018-10-09T11:41:19.369Z,59.20
2018-10-09T11:43:47.774Z,59.50
2018-10-09T11:46:16.206Z,59.10
2018-10-09T11:48:44.618Z,59.10
2018-10-09T11:51:13.092Z,58.60
2018-10-09T11:53:41.939Z,58.50
2018-10-09T11:56:10.414Z,58.20
2018-10-09T11:58:38.834Z,58.30
2018-10-09T12:01:08.769Z,57.80
2018-10-09T12:03:37.183Z,57.80
2018-10-09T12:06:05.698Z,57.80
2018-10-09T12:08:34.136Z,57.10
2018-10-09T12:11:02.663Z,56.70
2018-10-09T12:13:31.335Z,56.30
2018-10-09T12:15:59.918Z,55.80
2018-10-09T12:18:28.318Z,55.70
2018-10-09T12:20:56.798Z,55.40
2018-10-09T12:23:25.374Z,54.70
2018-10-09T12:25:53.811Z,54.80
2018-10-09T12:28:22.344Z,54.60
2018-10-09T12:30:50.745Z,54.60
2018-10-09T12:33:19.221Z,54.40
2018-10-09T12:35:47.633Z,54.60
2018-10-09T12:38:16.196Z,54.90
2018-10-09T12:40:44.711Z,54.90
2018-10-09T12:43:13.128Z,55.00
2018-10-09T12:45:41.587Z,54.70
2018-10-09T12:48:10.006Z,54.60
2018-10-09T12:50:38.441Z,55.00
2018-10-09T12:53:07.166Z,54.90
2018-10-09T12:55:35.539Z,55.00
2018-10-09T12:58:04.064Z,55.00
2018-10-09T13:00:32.477Z,55.00
2018-10-09T13:03:00.927Z,54.50
2018-10-09T13:05:29.449Z,54.50
2018-10-09T13:07:57.951Z,54.40
2018-10-09T13:10:26.387Z,55.00
2018-10-09T13:12:54.842Z,54.10
2018-10-09T13:15:23.312Z,54.40
2018-10-09T13:17:51.689Z,55.10
2018-10-09T13:20:20.117Z,54.00
2018-10-09T13:22:48.649Z,54.00
2018-10-09T13:25:17.071Z,54.30
2018-10-09T13:27:45.414Z,54.40
2018-10-09T13:30:13.903Z,54.30
2018-10-09T13:32:42.693Z,54.20
2018-10-09T13:35:11.237Z,54.40
2018-10-09T13:37:39.737Z,54.40
2018-10-09T13:40:08.199Z,54.70
2018-10-09T13:42:36.596Z,55.10
2018-10-09T13:45:05.597Z,55.40
2018-10-09T13:47:34.165Z,55.30
2018-10-09T13:50:02.565Z,55.20
2018-10-09T13:52:30.969Z,54.90
2018-10-09T13:54:59.403Z,54.90
2018-10-09T13:57:27.876Z,54.90
2018-10-09T13:59:56.263Z,54.90
2018-10-09T14:02:24.804Z,54.70
2018-10-09T14:04:53.308Z,54.70
2018-10-09T14:07:21.822Z,54.40
2018-10-09T14:09:50.448Z,54.20
2018-10-09T14:12:18.854Z,54.20
2018-10-09T14:14:47.381Z,54.80
2018-10-09T14:17:15.799Z,54.60
2018-10-09T14:19:44.223Z,54.40
2018-10-09T14:22:12.778Z,53.90
2018-10-09T14:24:41.247Z,54.30
2018-10-09T14:27:09.756Z,54.00
2018-10-09T14:29:38.220Z,54.10
2018-10-09T14:32:06.920Z,54.10
2018-10-09T14:34:35.373Z,54.30
2018-10-09T14:37:03.857Z,54.50
2018-10-09T14:39:32.344Z,54.20
2018-10-09T14:42:01.073Z,54.40
2018-10-09T14:44:29.611Z,54.40
2018-10-09T14:46:58.035Z,54.80
2018-10-09T14:49:26.594Z,54.70
2018-10-09T14:51:55.045Z,54.60
2018-10-09T14:54:23.571Z,55.00
2018-10-09T14:56:52.095Z,54.80
2018-10-09T14:59:20.739Z,55.00
2018-10-09T15:01:49.182Z,55.30
2018-10-09T15:04:17.605Z,55.70
2018-10-09T15:06:46.108Z,56.30
2018-10-09T15:09:14.819Z,55.90
2018-10-09T15:11:43.864Z,55.90
2018-10-09T15:14:12.272Z,56.00
2018-10-09T15:16:40.889Z,56.60
2018-10-09T15:19:09.621Z,56.90
2018-10-09T15:21:38.281Z,57.10
2018-10-09T15:24:06.790Z,57.10
2018-10-09T15:26:35.215Z,57.10
2018-10-09T15:29:03.723Z,57.10
2018-10-09T15:31:32.146Z,57.10
2018-10-09T15:34:00.702Z,57.00
2018-10-09T15:36:29.174Z,56.90
2018-10-09T15:38:57.786Z,57.00
2018-10-09T15:41:26.322Z,57.20
2018-10-09T15:43:54.818Z,57.20
2018-10-09T15:46:23.325Z,57.10
2018-10-09T15:48:51.884Z,57.10
2018-10-09T15:51:20.302Z,57.20
2018-10-09T15:53:48.726Z,57.20
2018-10-09T15:56:17.153Z,57.50
2018-10-09T15:58:45.547Z,57.40
2018-10-09T16:01:14.654Z,57.40
2018-10-09T16:03:43.099Z,57.10
2018-10-09T16:06:11.709Z,57.30
2018-10-09T16:08:40.118Z,58.10
2018-10-09T16:11:08.599Z,57.60
2018-10-09T16:13:36.992Z,57.60
2018-10-09T16:16:05.517Z,57.60
2018-10-09T16:18:34.126Z,57.80
2018-10-09T16:21:02.682Z,58.00
2018-10-09T16:23:31.639Z,58.00
2018-10-09T16:26:00.098Z,58.20
2018-10-09T16:28:29.076Z,58.20
2018-10-09T16:30:57.493Z,58.40
2018-10-09T16:33:25.974Z,58.40
2018-10-09T16:35:54.437Z,58.70
2018-10-09T16:38:23.322Z,59.20
2018-10-09T16:40:51.766Z,59.50
2018-10-09T16:43:20.315Z,59.90
2018-10-09T16:45:48.936Z,60.20
2018-10-09T16:48:17.362Z,60.50
2018-10-09T16:50:45.807Z,60.80
2018-10-09T16:53:14.734Z,60.90
2018-10-09T16:55:43.154Z,61.20
2018-10-09T16:58:11.745Z,61.40
2018-10-09T17:00:40.098Z,61.60
2018-10-09T17:03:08.543Z,61.70
2018-10-09T17:05:37.216Z,61.90
2018-10-09T17:08:05.691Z,62.20
2018-10-09T17:10:34.119Z,62.40
2018-10-09T17:13:02.602Z,62.70
2018-10-09T17:15:31.083Z,62.90
2018-10-09T17:17:59.803Z,63.10
2018-10-09T17:20:28.242Z,62.90
2018-10-09T17:22:56.887Z,63.00
2018-10-09T17:25:25.476Z,62.80
2018-10-09T17:27:53.961Z,63.30
2018-10-09T17:30:22.446Z,63.70
2018-10-09T17:32:50.863Z,63.80
2018-10-09T17:35:19.364Z,63.90
2018-10-09T17:37:47.937Z,64.10
2018-10-09T17:40:16.434Z,64.00
2018-10-09T17:42:45.573Z,64.20
2018-10-09T17:45:14.151Z,64.20
2018-10-09T17:47:42.663Z,64.50
2018-10-09T17:50:11.150Z,64.70
2018-10-09T17:52:39.634Z,65.00
2018-10-09T17:55:08.238Z,65.20
2018-10-09T17:57:38.052Z,65.40
2018-10-09T18:00:08.071Z,66.40
2018-10-09T18:02:36.620Z,65.70
2018-10-09T18:05:05.253Z,65.90
2018-10-09T18:07:33.719Z,66.00
2018-10-09T18:10:02.154Z,66.10
2018-10-09T18:12:30.599Z,66.20
2018-10-09T18:14:59.114Z,67.10
2018-10-09T18:17:27.987Z,66.30
2018-10-09T18:19:56.679Z,66.30
2018-10-09T18:22:25.161Z,66.40
2018-10-09T18:24:53.816Z,66.60
2018-10-09T18:27:22.507Z,66.40
2018-10-09T18:32:44.769Z,66.40
2018-10-09T18:35:13.036Z,66.60
2018-10-09T18:37:41.675Z,66.70
2018-10-09T18:40:10.106Z,67.10
2018-10-09T18:42:38.814Z,67.10
2018-10-09T18:45:07.518Z,67.30
2018-10-09T18:47:43.247Z,67.30
2018-10-09T18:50:12.135Z,67.60
2018-10-09T18:52:41.341Z,67.60
2018-10-09T18:55:12.159Z,67.70
2018-10-09T18:57:40.632Z,68.00
2018-10-09T19:00:09.961Z,68.00
2018-10-09T19:02:39.258Z,68.10
2018-10-09T19:05:08.405Z,68.20
2018-10-09T19:07:37.120Z,68.40
2018-10-09T19:10:05.887Z,68.50
2018-10-09T19:12:34.478Z,68.40
2018-10-09T19:15:03.045Z,68.60
2018-10-09T19:17:31.438Z,68.70
2018-10-09T19:20:00.035Z,68.70
2018-10-09T19:22:28.616Z,68.70
2018-10-09T19:24:57.403Z,68.80
2018-10-09T19:27:25.893Z,68.90
2018-10-09T19:29:54.512Z,69.00
2018-10-09T19:32:23.148Z,69.30
2018-10-09T19:34:51.685Z,69.30
2018-10-09T19:37:20.277Z,69.30
2018-10-09T19:39:49.020Z,69.40
2018-10-09T19:42:17.355Z,69.40
2018-10-09T19:44:45.961Z,69.30
2018-10-09T19:47:14.481Z,69.30
2018-10-09T19:49:42.859Z,69.40
2018-10-09T19:52:11.289Z,69.50
2018-10-09T19:54:39.775Z,69.40
2018-10-09T19:57:08.282Z,69.40
2018-10-09T19:59:36.772Z,69.60
2018-10-09T20:02:05.289Z,69.60
2018-10-09T20:04:33.898Z,70.80
2018-10-09T20:07:02.462Z,69.90
2018-10-09T20:09:30.885Z,69.70
2018-10-09T20:11:59.336Z,70.10
2018-10-09T20:14:28.067Z,70.50
2018-10-09T20:16:56.511Z,70.20
2018-10-09T20:19:24.905Z,70.70
2018-10-09T20:21:53.371Z,71.00
2018-10-09T20:24:21.813Z,71.20
2018-10-09T20:26:50.415Z,70.90
2018-10-09T20:29:18.904Z,70.90
2018-10-09T20:31:47.327Z,71.00
2018-10-09T20:34:15.865Z,71.20
2018-10-09T20:36:44.274Z,72.00
2018-10-09T20:39:12.940Z,71.00
2018-10-09T20:41:41.528Z,71.20
2018-10-09T20:44:09.968Z,71.50
2018-10-09T20:46:38.401Z,71.80
2018-10-09T20:49:06.771Z,71.50
2018-10-09T20:51:35.336Z,71.60
2018-10-09T20:54:04.020Z,71.80
2018-10-09T20:56:32.430Z,72.00
2018-10-09T20:59:00.808Z,72.10
2018-10-09T21:01:29.280Z,72.50
2018-10-09T21:03:57.678Z,72.40
2018-10-09T21:06:26.302Z,72.20
2018-10-09T21:08:54.682Z,72.10
2018-10-09T21:11:23.084Z,72.30
2018-10-09T21:13:51.619Z,72.60
2018-10-09T21:16:19.995Z,72.10
2018-10-09T21:18:48.504Z,72.60
2018-10-09T21:21:16.898Z,72.30
2018-10-09T21:23:45.296Z,72.30
2018-10-09T21:26:13.736Z,72.30
2018-10-09T21:28:42.183Z,72.40
2018-10-09T21:31:10.703Z,72.50
2018-10-09T21:33:39.121Z,72.20
2018-10-09T21:36:07.878Z,73.40
2018-10-09T21:38:36.582Z,73.00
2018-10-09T21:41:05.036Z,72.70
2018-10-09T21:43:33.623Z,72.80
2018-10-09T21:46:02.117Z,72.50
2018-10-09T21:48:30.622Z,73.00
2018-10-09T21:50:59.231Z,73.60
2018-10-09T21:53:27.736Z,73.60
2018-10-09T21:55:56.156Z,73.40
2018-10-09T21:58:24.546Z,73.30
2018-10-09T22:00:58.199Z,73.20
2018-10-09T22:03:26.617Z,73.40
2018-10-09T22:05:55.049Z,73.20
2018-10-09T22:08:23.433Z,73.90
2018-10-09T22:10:52.014Z,74.00
2018-10-09T22:13:20.466Z,73.70
2018-10-09T22:15:48.914Z,73.60
2018-10-09T22:18:17.303Z,73.50
2018-10-09T22:20:45.681Z,73.70
2018-10-09T22:23:14.233Z,73.90
2018-10-09T22:25:42.869Z,73.50
2018-10-09T22:28:11.407Z,73.50
2018-10-09T22:30:39.850Z,73.40
2018-10-09T22:33:07.862Z,73.60
2018-10-09T22:35:35.495Z,73.90
2018-10-09T22:38:03.214Z,74.30
2018-10-09T22:40:30.917Z,74.10
2018-10-09T22:42:58.580Z,74.10
2018-10-09T22:45:26.195Z,74.30
2018-10-09T22:47:53.844Z,73.80
2018-10-09T22:50:21.486Z,74.00
2018-10-09T22:52:49.079Z,75.00
2018-10-09T22:55:16.687Z,74.10
2018-10-09T22:57:44.411Z,74.20
2018-10-09T23:00:12.072Z,74.10
2018-10-09T23:02:39.709Z,74.10
2018-10-09T23:05:07.389Z,74.10
2018-10-09T23:07:35.111Z,74.00
2018-10-09T23:10:02.774Z,73.90
2018-10-09T23:12:30.382Z,74.00
2018-10-09T23:14:57.994Z,74.40
2018-10-09T23:17:25.647Z,74.70
2018-10-09T23:19:53.324Z,74.20
2018-10-09T23:22:21.327Z,74.50
2018-10-09T23:24:48.983Z,74.70
2018-10-09T23:27:16.598Z,74.80
2018-10-09T23:29:44.270Z,75.10
2018-10-09T23:32:11.899Z,74.60
2018-10-09T23:34:39.513Z,74.40
2018-10-09T23:37:07.407Z,74.60
2018-10-09T23:39:35.075Z,74.40
2018-10-09T23:42:02.678Z,74.30
2018-10-09T23:44:30.313Z,74.30
2018-10-09T23:46:58.023Z,74.10
2018-10-09T23:49:25.745Z,74.20
2018-10-09T23:51:53.399Z,74.40
2018-10-09T23:54:21.020Z,74.40
2018-10-09T23:56:48.874Z,74.20
2018-10-09T23:59:16.615Z,74.30
